Milford, Utah Weather observations

Data are for observation ending at time listed.
 Day   Time    Ave.   Ave.  Ave.  Vector   Max.   Stn.    Total    Solar   Ave.  
  of    of     Air    Rel.  Wind   Wind    Wind   Baro.  Precip.   Rad.    Soil  
Year   Day     Temp.  Hum.  Speed  Dir.    Gust   Pres.                    Temp. 
2014   (MST)    F      %     mph   deg.    mph     mb.     in.     W/m2     F   
------------------------------------------------------------------------------
 203    8:50   75.8    26    4.3   167      8.1   854.8    0.00     510    66.6
 203    9:00   76.1    24    4.8   171      8.3   854.9    0.00     536    66.6
 203    9:10   76.9    24    4.4   172      7.5   855.0    0.00     561    66.6
 203    9:20   78.7    24    4.2   168      8.4   855.1    0.00     584    66.6
 203    9:30   80.1    20    4.2   173      8.0   855.2    0.00     608    66.6
 203    9:40   80.8    16    4.8   169      9.1   855.4    0.00     632    66.6
 203    9:50   81.5    15    4.4   174      9.0   855.5    0.00     654    66.6
 203   10:00   82.1    16    5.2   164     11.2   855.6    0.00     675    66.6
 203   10:10   83.0    17    4.0   174      7.1   855.7    0.00     696    66.6
 203   10:20   84.1    16    3.6   170      8.2   855.7    0.00     715    66.6
 203   10:30   84.0    14    5.1   163      8.6   855.7    0.00     733    66.6
 203   10:40   84.7    13    4.2   174     11.8   855.7    0.00     751    66.6
 203   10:50   85.7    13    2.8   183      7.1   855.7    0.00     767    66.6
 203   11:00   86.2    13    3.2   189      7.2   855.7    0.00     782    66.6
 203   11:10   87.1    14    2.6   196      6.5   855.6    0.00     796    66.6
 203   11:20   87.5    13    3.3   195      9.9   855.6    0.00     808    66.6
 203   11:30   88.0    13    3.7   179      7.7   855.5    0.00     818    66.7
 203   11:40   87.9    13    3.8   187      9.1   855.5    0.00     827    66.7
 203   11:50   88.3    13    3.8   191      7.7   855.5    0.00     835    66.8
 203   12:00   88.1    13    4.4   177     11.9   855.4    0.00     842    66.8
 203   12:10   87.9    12    4.3   163     10.9   855.4    0.00     846    66.8
 203   12:20   88.8    12    3.1   159      7.1   855.4    0.00     849    66.9
 203   12:30   89.4    12    2.6   176      8.8   855.4    0.00     853    66.9
 203   12:40   89.9    11    1.6   166      4.5   855.3    0.00     853    67.0
 203   12:50   90.9    13    2.1   184      8.8   855.3    0.00     852    67.1
 203   13:00   91.3    11    1.5   160      9.1   855.3    0.00     849    67.2
 203   13:10   91.6    11    3.0   163      8.8   855.2    0.00     848    67.2
 203   13:20   91.7    11    5.3   167     11.3   855.2    0.00     840    67.2
 203   13:30   92.3    10    5.5   148     10.9   855.2    0.00     834    67.3
 203   13:40   92.2    11    2.7   214      8.3   855.2    0.00     829    67.3
 203   13:50   92.7    11    4.0   171      9.3   855.1    0.00     819    67.4
 203   14:00   92.7    11    3.8   161     12.3   855.0    0.00     809    67.5
 203   14:10   93.1    11    2.4   155     12.5   854.9    0.00     800    67.6
 203   14:20   94.4    11    2.9   180      9.0   854.8    0.00     787    67.7
 203   14:30   95.1    11    3.7   180     16.1   854.8    0.00     773    67.7
 203   14:40   94.9    11    4.2   182     13.4   854.7    0.00     757    67.9
 203   14:50   94.6    11    4.3   184     14.5   854.6    0.00     740    67.9
 203   15:00   94.6    11    4.5   183      9.9   854.5    0.00     720    68.0
 203   15:10   94.9    10    5.1   192     12.2   854.4    0.00     702    68.1
 203   15:20   94.8    10    5.8   181     12.0   854.3    0.00     681    68.2
 203   15:30   94.7    10    7.2   176     15.5   854.1    0.00     659    68.3
 203   15:40   95.3    10    3.3   218      8.9   854.0    0.00     640    68.4
 203   15:50   95.5    10    4.2   180     11.0   853.9    0.00     617    68.5
 203   16:00   95.5    10    4.9   179     12.1   853.8    0.00     593    68.6
 203   16:10   95.0    10    4.2   204     14.4   853.7    0.00     570    68.8
 203   16:20   95.3    11    2.9   188      7.8   853.5    0.01     543    68.8
 203   16:30   94.7    12    2.8   208      7.7   853.2    0.01     518    69.0
 203   16:40   94.5    11    4.1   198     12.3   852.7    0.01     491    69.2
 203   16:50   94.0    11    3.4   198      9.9   852.3    0.00     465    69.3
 203   17:00   93.9    11    2.5   193      7.8   852.3    0.00     366    69.3
 203   17:10   93.7    11    3.0   211     11.2   852.4    0.00      32    69.4
 203   17:20   93.2    12    3.4   216      8.8   852.4    0.00      34    69.5
 203   17:30   92.6    12    3.0   226     12.8   852.4    0.00      53    69.6
 203   17:40   92.3    12    2.8   214      7.9   852.4    0.00      51    69.7
 203   17:50   92.3    12    3.2   205      8.7   852.4    0.00      28    69.9
 203   18:00   92.0    12    3.6   198     10.3   852.4    0.00      23    70.0
 203   18:10   91.7    12    3.5   200      9.1   852.4    0.00      22    70.1
 203   18:20   91.1    12    2.6   213     10.2   852.3    0.00      22    70.2
 203   18:30   90.7    12    2.6   214      7.0   852.2    0.00      23    70.2
 203   18:40   90.4    12    2.4   216      7.6   852.2    0.00      21    70.3
 203   18:50   90.4    12    2.8   201     10.4   852.1    0.00      16    70.4
 203   19:00   89.8    12    2.8   207      7.0   852.0    0.00      15    70.5
 203   19:10   89.2    12    1.5   220      4.3   852.0    0.00      15    70.6
 203   19:20   88.6    13    1.3   214      3.7   851.9    0.00      14    70.7
 203   19:30   88.1    13    1.2   228      3.8   851.9    0.00      10    70.8
 203   19:40   87.1    13    0.4   241      1.5   851.8    0.00       9    70.8
 203   19:50   85.5    14    0.4   208      1.1   851.8    0.00       5    70.9
 203   20:00   84.2    15    0.6   214      2.0   851.8    0.00       3    71.0
 203   20:10   81.9    19    1.3   179      2.6   851.7    0.00       0    71.1
 203   20:20   79.7    22    1.2   216      3.1   851.7    0.00       0    71.2
 203   20:30   78.5    24    1.4   210      2.8   851.5    0.00       0    71.2
 203   20:40   77.6    24    1.3   210      3.1   851.6    0.00       0    71.3
 203   20:50   77.1    24    1.5   197      2.8   851.6    0.00       0    71.3
 203   21:00   76.6    24    1.5   208      4.3   851.6    0.00       0    71.3
 203   21:10   76.9    23    1.9   198      3.9   851.6    0.00       0    71.4
 203   21:20   76.2    24    1.7   202      3.8   851.6    0.00       0    71.5
 203   21:30   76.1    24    1.7   204      3.7   851.6    0.00       0    71.5
 203   21:40   75.6    25    1.8   206      5.0   851.7    0.00       0    71.5
 203   21:50   75.3    25    1.6   216      3.9   851.7    0.00       0    71.5
 203   22:00   75.0    24    2.0   204      3.7   851.8    0.00       0    71.6
 203   22:10   75.7    23    1.8   212      5.0   851.9    0.00       0    71.6
 203   22:20   75.8    23    1.8   225      3.6   851.9    0.00       0    99999.0
 203   22:30   75.8    23    1.7   233      3.8   852.0    0.00       0    99999.0
 203   22:40   75.0    24    1.5   226      3.2   852.1    0.00       0    71.7
 203   22:50   74.1    26    2.0   229      3.9   852.1    0.00       0    71.8
 203   23:00   74.6    25    2.2   217      5.1   852.1    0.00       0    72.0
 203   23:10   73.3    27    2.0   218      4.2   852.1    0.00       0    71.9
 203   23:20   73.4    25    1.9   210      3.6   852.1    0.00       0    71.7
 203   23:30   73.4    25    1.9   225      4.2   852.1    0.00       0    99999.0
 203   23:40   73.3    25    1.5   216      2.8   852.1    0.00       0    71.8
 203   23:50   72.6    26    1.7   208      3.4   852.1    0.00       0    99999.0
 204    0:00   71.7    27    1.9   220      4.3   852.1    0.00       0    99999.0
 204    0:10   71.0    27    1.9   221      3.8   852.0    0.00       0    99999.0
 204    0:20   68.9    30    1.9   195      3.3   851.9    0.00       0    99999.0
 204    0:30   67.5    30    1.8   201      3.5   851.8    0.00       0    99999.0
 204    0:40   68.3    28    2.1   190      4.6   851.7    0.00       0    99999.0
 204    0:50   68.7    27    1.7   199      3.2   851.6    0.00       0    99999.0
 204    1:00   69.1    27    2.4   173      4.5   851.7    0.00       0    99999.0
 204    1:10   67.6    28    2.0   220      3.6   851.7    0.00       0    99999.0
 204    1:20   70.5    23    2.2   248      4.3   851.7    0.00       0    99999.0
 204    1:30   70.9    22    2.1   243      4.0   851.7    0.00       0    99999.0
 204    1:40   71.0    22    1.5   242      3.1   851.7    0.00       0    99999.0
 204    1:50   70.8    22    2.1   249      3.7   851.8    0.00       0    99999.0
 204    2:00   70.2    22    2.6   253      4.0   851.8    0.00       0    71.8
 204    2:10   70.1    23    2.5   254      3.8   851.7    0.00       0    71.7
 204    2:20   70.0    23    2.0   255      4.6   851.7    0.00       0    71.7
 204    2:30   69.2    25    0.8   273      2.3   851.7    0.00       0    71.7
 204    2:40   66.0    32    0.5    40      2.0   851.6    0.00       0    71.7
 204    2:50   64.0    33    0.3   208      1.5   851.4    0.00       0    71.7
 204    3:00   62.5    34    1.2   190      2.0   851.3    0.00       0    71.7
 204    3:10   62.1    35    1.6   185      2.8   851.1    0.00       0    71.7
 204    3:20   61.8    37    1.2   195      2.6   851.0    0.00       0    71.7
 204    3:30   61.5    39    1.4   186      2.6   850.9    0.00       0    71.7
 204    3:40   61.1    41    1.4   190      3.0   850.8    0.00       0    71.6
 204    3:50   60.9    41    1.4   181      2.4   850.7    0.00       0    71.6
 204    4:00   61.6    40    1.9   173      3.1   850.6    0.00       0    71.6
 204    4:10   62.3    39    1.8   190      3.1   850.6    0.00       0    71.6
 204    4:20   63.1    38    1.4   204      3.1   850.6    0.01       0    71.6
 204    4:30   62.5    39    1.7   236      3.9   850.6    0.03       0    71.5
 204    4:40   61.8    41    1.7   232      3.6   850.5    0.02       0    70.9
 204    4:50   62.3    39    1.5   219      4.0   850.4    0.00       0    71.0
 204    5:00   62.0    41    1.5   201      3.1   850.4    0.00       0    71.3
 204    5:10   60.9    44    1.7   191      2.9   850.4    0.00       0    71.3
 204    5:20   60.1    44    2.1   189      2.9   850.5    0.00       0    71.3
 204    5:30   59.4    44    2.2   194      3.8   850.6    0.00       1    71.3
 204    5:40   59.3    42    2.1   210      4.7   850.7    0.00       5    71.3
 204    5:50   59.2    41    1.9   200      3.7   850.8    0.00       7    71.3
 204    6:00   59.1    40    2.1   180      3.2   850.9    0.00      20    71.3
 204    6:10   59.3    40    2.2   175      3.4   850.9    0.00      52    71.3
 204    6:20   59.4    43    2.5   180      3.8   851.0    0.00      85    71.2
 204    6:30   60.1    43    2.7   170      4.5   851.2    0.00     113    71.2
 204    6:40   61.1    42    2.9   168      4.5   851.4    0.00     137    71.1
 204    6:50   62.7    42    2.4   172      4.0   851.5    0.00     157    71.1
 204    7:00   64.5    40    2.2   174      4.5   851.7    0.00     184    71.1
 204    7:10   65.7    39    2.6   172      4.4   851.9    0.00     210    71.0
 204    7:20   67.4    38    2.5   164      3.8   852.1    0.00     238    71.0
 204    7:30   69.1    37    3.3   167      6.0   852.4    0.00     269    70.9
 204    7:40   71.1    36    2.4   175      4.9   852.7    0.00     298    70.9
 204    7:50   73.1    33    2.8   169      5.0   852.8    0.00     319    70.9
 204    8:00   75.7    32    2.0   181      5.8   853.0    0.00     347    70.9
 204    8:10   77.6    26    3.7   179      8.3   853.3    0.00     340    70.8
 204    8:20   78.9    24    3.3   178      7.8   853.5    0.00     401    70.8
 204    8:30   80.0    22    3.8   172      7.7   853.6    0.00     427    70.8
 204    8:40   82.4    20    3.6   167      7.2   853.8    0.00     451    70.7

Return to Milford, Utah graphs page.


Western Regional Climate Center,wrcc@dri.edu